createdAt,value
2022-09-24T00:01:40.996Z,99.90
2022-09-24T00:04:11.542Z,99.90
2022-09-24T00:06:41.892Z,99.90
2022-09-24T00:09:10.300Z,99.90
2022-09-24T00:11:39.199Z,99.90
2022-09-24T00:14:08.766Z,99.90
2022-09-24T00:16:36.722Z,99.90
2022-09-24T00:19:05.057Z,99.90
2022-09-24T00:21:34.814Z,99.90
2022-09-24T00:24:05.175Z,99.90
2022-09-24T00:26:49.831Z,99.90
2022-09-24T00:29:20.771Z,99.90
2022-09-24T00:31:49.491Z,99.90
2022-09-24T00:34:17.548Z,99.90
2022-09-24T00:36:46.707Z,99.90
2022-09-24T00:39:14.823Z,99.90
2022-09-24T00:41:47.066Z,99.90
2022-09-24T00:44:52.860Z,99.90
2022-09-24T00:47:31.571Z,99.90
2022-09-24T00:50:09.908Z,99.90
2022-09-24T00:52:41.546Z,99.90
2022-09-24T00:55:10.485Z,99.90
2022-09-24T00:57:39.593Z,99.90
2022-09-24T01:00:10.450Z,99.90
2022-09-24T01:02:42.022Z,99.90
2022-09-24T01:05:10.671Z,99.90
2022-09-24T01:07:38.469Z,99.90
2022-09-24T01:10:07.025Z,99.90
2022-09-24T01:12:45.102Z,99.90
2022-09-24T01:15:22.387Z,99.90
2022-09-24T01:17:58.420Z,99.90
2022-09-24T01:20:54.837Z,99.90
2022-09-24T01:23:39.280Z,99.90
2022-09-24T01:26:20.318Z,99.90
2022-09-24T01:29:05.862Z,99.90
2022-09-24T01:31:40.890Z,99.90
2022-09-24T01:34:12.304Z,99.90
2022-09-24T01:36:41.452Z,99.90
2022-09-24T01:39:09.975Z,99.90
2022-09-24T01:41:39.984Z,99.90
2022-09-24T01:44:07.803Z,99.90
2022-09-24T01:46:39.358Z,99.90
2022-09-24T01:49:07.350Z,99.90
2022-09-24T01:51:43.930Z,99.90
2022-09-24T01:54:17.996Z,99.90
2022-09-24T01:56:50.333Z,99.90
2022-09-24T01:59:23.568Z,99.90
2022-09-24T02:01:58.430Z,99.90
2022-09-24T02:04:28.536Z,99.90
2022-09-24T02:07:01.892Z,99.90
2022-09-24T02:09:34.714Z,99.90
2022-09-24T02:12:11.354Z,99.90
2022-09-24T02:14:44.928Z,99.90
2022-09-24T02:17:16.253Z,99.90
2022-09-24T02:19:45.129Z,99.90
2022-09-24T02:22:14.997Z,99.90
2022-09-24T02:24:49.065Z,99.90
2022-09-24T02:27:17.236Z,99.90
2022-09-24T02:29:46.112Z,99.90
2022-09-24T02:32:19.317Z,99.90
2022-09-24T02:34:48.842Z,99.90
2022-09-24T02:37:18.139Z,99.90
2022-09-24T02:39:45.811Z,99.90
2022-09-24T02:42:15.659Z,99.90
2022-09-24T02:44:43.404Z,99.90
2022-09-24T02:47:11.498Z,99.90
2022-09-24T02:49:40.580Z,99.90
2022-09-24T02:52:08.393Z,99.90
2022-09-24T02:54:36.056Z,99.90
2022-09-24T02:57:03.785Z,99.90
2022-09-24T02:59:31.613Z,99.90
2022-09-24T03:01:59.360Z,99.90
2022-09-24T03:04:28.577Z,99.90
2022-09-24T03:06:57.734Z,99.90
2022-09-24T03:09:25.419Z,99.90
2022-09-24T03:11:53.144Z,99.90
2022-09-24T03:14:20.810Z,99.90
2022-09-24T03:16:48.489Z,99.90
2022-09-24T03:19:16.142Z,99.90
2022-09-24T03:21:43.804Z,99.90
2022-09-24T03:24:12.793Z,99.90
2022-09-24T03:26:40.471Z,99.90
2022-09-24T03:29:08.168Z,99.90
2022-09-24T03:31:34.910Z,99.90
2022-09-24T03:34:02.622Z,99.90
2022-09-24T03:36:30.316Z,99.90
2022-09-24T03:38:58.545Z,99.90
2022-09-24T03:41:28.339Z,99.90
2022-09-24T03:43:56.552Z,99.90
2022-09-24T03:46:30.178Z,99.90
2022-09-24T03:49:00.375Z,99.90
2022-09-24T03:51:28.182Z,99.90
2022-09-24T03:53:55.881Z,99.90
2022-09-24T03:56:24.158Z,99.90
2022-09-24T03:58:53.191Z,99.90
2022-09-24T04:01:22.025Z,99.90
2022-09-24T04:03:50.323Z,99.90
2022-09-24T04:06:23.351Z,99.90
2022-09-24T04:08:52.651Z,99.90
2022-09-24T04:11:20.318Z,99.90
2022-09-24T04:13:48.058Z,99.90
2022-09-24T04:16:17.210Z,99.90
2022-09-24T04:18:47.921Z,99.90
2022-09-24T04:21:15.593Z,99.90
2022-09-24T04:23:43.347Z,99.90
2022-09-24T04:26:11.008Z,99.90
2022-09-24T04:28:38.748Z,99.90
2022-09-24T04:31:06.498Z,99.90
2022-09-24T04:33:35.604Z,99.90
2022-09-24T04:36:03.568Z,99.90
2022-09-24T04:38:31.299Z,99.90
2022-09-24T04:41:06.133Z,99.90
2022-09-24T04:43:34.126Z,99.90
2022-09-24T04:46:01.897Z,99.90
2022-09-24T04:48:30.102Z,99.90
2022-09-24T04:50:59.266Z,99.90
2022-09-24T04:53:27.114Z,99.90
2022-09-24T04:55:54.796Z,99.90
2022-09-24T04:58:22.546Z,99.90
2022-09-24T05:00:51.157Z,99.90
2022-09-24T05:03:19.077Z,99.90
2022-09-24T05:05:47.020Z,99.90
2022-09-24T05:08:16.412Z,99.90
2022-09-24T05:10:44.152Z,99.90
2022-09-24T05:13:11.809Z,99.90
2022-09-24T05:15:43.009Z,99.90
2022-09-24T05:18:11.101Z,99.90
2022-09-24T05:20:38.826Z,99.90
2022-09-24T05:23:07.093Z,99.90
2022-09-24T05:25:57.032Z,99.90
2022-09-24T05:28:23.903Z,99.90
2022-09-24T05:30:51.580Z,99.90
2022-09-24T05:33:19.307Z,99.90
2022-09-24T05:35:54.378Z,99.90
2022-09-24T05:38:22.321Z,99.90
2022-09-24T05:40:51.754Z,99.90
2022-09-24T05:43:20.198Z,99.90
2022-09-24T05:45:49.985Z,99.90
2022-09-24T05:48:17.777Z,99.90
2022-09-24T05:50:45.444Z,99.90
2022-09-24T05:53:13.213Z,99.90
2022-09-24T05:55:40.936Z,99.90
2022-09-24T05:58:11.741Z,99.90
2022-09-24T06:00:39.679Z,99.90
2022-09-24T06:03:11.715Z,99.90
2022-09-24T06:05:39.536Z,99.90
2022-09-24T06:08:08.631Z,99.90
2022-09-24T06:10:37.148Z,99.90
2022-09-24T06:13:05.071Z,99.90
2022-09-24T06:15:34.979Z,99.90
2022-09-24T06:18:02.936Z,99.90
2022-09-24T06:20:30.641Z,99.90
2022-09-24T06:22:58.530Z,99.90
2022-09-24T06:25:26.542Z,99.90
2022-09-24T06:28:00.585Z,99.90
2022-09-24T06:30:30.293Z,99.90
2022-09-24T06:33:05.268Z,99.90
2022-09-24T06:35:34.621Z,99.90
2022-09-24T06:38:02.315Z,99.90
2022-09-24T06:40:34.138Z,99.90
2022-09-24T06:43:05.120Z,99.90
2022-09-24T06:45:32.972Z,99.90
2022-09-24T06:48:05.973Z,99.90
2022-09-24T06:50:35.978Z,99.90
2022-09-24T06:53:06.242Z,99.90
2022-09-24T06:55:34.969Z,99.90
2022-09-24T06:58:04.329Z,99.90
2022-09-24T07:00:32.428Z,99.90
2022-09-24T07:03:00.372Z,99.90
2022-09-24T07:05:29.489Z,99.90
2022-09-24T07:07:57.280Z,99.90
2022-09-24T07:10:26.431Z,99.90
2022-09-24T07:12:56.312Z,99.90
2022-09-24T07:15:24.037Z,99.90
2022-09-24T07:17:59.184Z,99.90
2022-09-24T07:20:28.162Z,99.90
2022-09-24T07:22:57.309Z,99.90
2022-09-24T07:25:25.043Z,99.90
2022-09-24T07:27:52.778Z,99.90
2022-09-24T07:30:21.610Z,99.90
2022-09-24T07:32:54.903Z,99.90
2022-09-24T07:35:22.871Z,99.90
2022-09-24T07:37:56.979Z,99.90
2022-09-24T07:40:27.921Z,99.90
2022-09-24T07:42:55.905Z,99.90
2022-09-24T07:45:27.982Z,99.90
2022-09-24T07:48:01.250Z,99.90
2022-09-24T07:50:33.259Z,99.90
2022-09-24T07:53:01.323Z,99.90
2022-09-24T07:55:30.329Z,99.90
2022-09-24T07:57:58.075Z,99.90
2022-09-24T08:00:26.351Z,99.90
2022-09-24T08:02:56.311Z,99.90
2022-09-24T08:05:24.110Z,99.90
2022-09-24T08:07:53.993Z,99.90
2022-09-24T08:10:22.019Z,99.90
2022-09-24T08:12:52.296Z,99.90
2022-09-24T08:15:20.322Z,99.90
2022-09-24T08:17:48.049Z,99.90
2022-09-24T08:20:16.093Z,99.90
2022-09-24T08:22:43.944Z,99.90
2022-09-24T08:25:11.831Z,99.90
2022-09-24T08:27:39.666Z,99.90
2022-09-24T08:30:10.121Z,99.90
2022-09-24T08:32:37.896Z,99.90
2022-09-24T08:35:08.171Z,99.90
2022-09-24T08:37:36.329Z,99.90
2022-09-24T08:40:04.777Z,99.90
2022-09-24T08:42:43.723Z,99.90
2022-09-24T08:45:32.444Z,99.90
2022-09-24T08:48:06.793Z,99.90
2022-09-24T08:50:39.482Z,99.90
2022-09-24T08:53:16.184Z,99.90
2022-09-24T08:55:47.347Z,99.90
2022-09-24T08:58:39.249Z,99.90
2022-09-24T09:01:20.594Z,99.90
2022-09-24T09:03:53.376Z,99.90
2022-09-24T09:06:41.735Z,99.90
2022-09-24T09:09:13.479Z,99.90
2022-09-24T09:11:43.067Z,99.90
2022-09-24T09:14:17.501Z,99.90
2022-09-24T09:16:49.519Z,99.90
2022-09-24T09:19:18.988Z,99.90
2022-09-24T09:21:53.630Z,99.90
2022-09-24T09:24:24.250Z,99.90
2022-09-24T09:26:55.162Z,99.50
2022-09-24T09:29:26.428Z,98.50
2022-09-24T09:32:06.036Z,99.90
2022-09-24T09:34:52.232Z,99.60
2022-09-24T09:37:28.145Z,99.00
2022-09-24T09:40:04.268Z,96.80
2022-09-24T09:42:35.906Z,95.60
2022-09-24T09:45:08.619Z,95.90
2022-09-24T09:47:44.371Z,96.00
2022-09-24T09:50:26.373Z,96.20
2022-09-24T09:52:55.388Z,95.20
2022-09-24T09:55:26.790Z,96.00
2022-09-24T09:57:59.727Z,95.90
2022-09-24T10:00:33.682Z,95.20
2022-09-24T10:03:03.474Z,95.40
2022-09-24T10:05:31.853Z,95.20
2022-09-24T10:07:59.755Z,95.80
2022-09-24T10:10:28.682Z,95.80
2022-09-24T10:13:08.243Z,97.00
2022-09-24T10:15:45.262Z,96.70
2022-09-24T10:18:16.237Z,97.00
2022-09-24T10:20:49.531Z,97.40
2022-09-24T10:23:21.238Z,97.50
2022-09-24T10:26:00.023Z,97.80
2022-09-24T10:28:47.139Z,96.60
2022-09-24T10:31:17.706Z,97.20
2022-09-24T10:33:50.640Z,97.90
2022-09-24T10:36:21.844Z,97.30
2022-09-24T10:38:49.876Z,97.00
2022-09-24T10:41:26.903Z,96.70
2022-09-24T10:43:56.026Z,97.00
2022-09-24T10:46:51.880Z,97.40
2022-09-24T10:49:34.412Z,96.40
2022-09-24T10:52:10.626Z,97.10
2022-09-24T10:54:51.406Z,96.90
2022-09-24T10:57:29.710Z,97.60
2022-09-24T11:00:05.225Z,96.30
2022-09-24T11:03:19.885Z,96.60
2022-09-24T11:05:55.284Z,96.80
2022-09-24T11:08:34.140Z,97.10
2022-09-24T11:11:21.865Z,96.60
2022-09-24T11:13:59.720Z,97.30
2022-09-24T11:16:48.688Z,96.90
2022-09-24T11:19:26.443Z,97.10
2022-09-24T11:22:11.272Z,95.70
2022-09-24T11:24:51.138Z,96.10
2022-09-24T11:27:39.866Z,96.50
2022-09-24T11:30:14.560Z,96.10
2022-09-24T11:33:01.570Z,95.90
2022-09-24T11:36:05.415Z,95.70
2022-09-24T11:39:01.604Z,96.30
2022-09-24T11:41:44.698Z,96.00
2022-09-24T11:44:28.206Z,96.00
2022-09-24T11:47:09.126Z,95.50
2022-09-24T11:49:53.080Z,94.60
2022-09-24T11:52:28.835Z,94.40
2022-09-24T11:55:05.384Z,94.40
2022-09-24T11:57:37.918Z,94.30
2022-09-24T12:00:08.433Z,94.20
2022-09-24T12:02:42.069Z,94.50
2022-09-24T12:05:16.722Z,94.60
2022-09-24T12:07:50.800Z,94.50
2022-09-24T12:10:30.953Z,95.00
2022-09-24T12:13:05.523Z,94.80
2022-09-24T12:15:42.027Z,94.40
2022-09-24T12:18:17.364Z,93.30
2022-09-24T12:20:50.799Z,92.90
2022-09-24T12:23:23.758Z,91.30
2022-09-24T12:25:53.550Z,92.80
2022-09-24T12:28:40.040Z,91.40
2022-09-24T12:31:32.539Z,92.10
2022-09-24T12:34:06.070Z,91.40
2022-09-24T12:36:43.541Z,90.70
2022-09-24T12:39:14.349Z,91.70
2022-09-24T12:41:48.097Z,91.70
2022-09-24T12:44:22.095Z,92.60
2022-09-24T12:46:53.662Z,92.50
2022-09-24T12:49:32.072Z,92.50
2022-09-24T12:52:01.606Z,92.50
2022-09-24T12:54:31.999Z,91.50
2022-09-24T12:57:14.324Z,92.10
2022-09-24T12:59:53.739Z,93.00
2022-09-24T13:02:23.430Z,92.70
2022-09-24T13:05:05.267Z,92.90
2022-09-24T13:07:35.793Z,93.40
2022-09-24T13:10:23.502Z,93.40
2022-09-24T13:12:54.121Z,93.30
2022-09-24T13:15:28.748Z,93.30
2022-09-24T13:18:05.334Z,93.20
2022-09-24T13:20:34.438Z,92.70
2022-09-24T13:23:15.791Z,93.50
2022-09-24T13:25:54.826Z,92.40
2022-09-24T13:28:37.384Z,92.80
2022-09-24T13:31:15.488Z,92.00
2022-09-24T13:33:49.039Z,92.80
2022-09-24T13:36:20.663Z,92.30
2022-09-24T13:38:57.168Z,92.10
2022-09-24T13:41:33.276Z,91.30
2022-09-24T13:44:07.259Z,93.00
2022-09-24T13:46:37.376Z,93.20
2022-09-24T13:49:11.226Z,92.00
2022-09-24T13:51:41.967Z,92.10
2022-09-24T13:54:18.177Z,92.80
2022-09-24T13:56:58.603Z,92.90
2022-09-24T13:59:28.100Z,93.80
2022-09-24T14:01:56.193Z,93.80
2022-09-24T14:04:24.606Z,94.60
2022-09-24T14:06:55.455Z,94.80
2022-09-24T14:09:29.314Z,95.20
2022-09-24T14:11:59.259Z,95.90
2022-09-24T14:14:30.063Z,96.70
2022-09-24T14:17:08.376Z,96.20
2022-09-24T14:19:36.275Z,96.40
2022-09-24T14:22:06.233Z,97.30
2022-09-24T14:24:36.468Z,97.70
2022-09-24T14:27:08.001Z,97.40
2022-09-24T14:29:47.906Z,97.60
2022-09-24T14:32:23.356Z,97.60
2022-09-24T14:34:53.943Z,97.90
2022-09-24T14:37:25.399Z,98.40
2022-09-24T14:39:59.975Z,97.70
2022-09-24T14:42:30.780Z,97.70
2022-09-24T14:45:02.020Z,98.10
2022-09-24T14:47:31.549Z,98.20
2022-09-24T14:49:59.364Z,99.20
2022-09-24T14:52:30.900Z,99.60
2022-09-24T14:55:16.174Z,98.80
2022-09-24T14:57:49.607Z,99.30
2022-09-24T15:00:23.473Z,99.90
2022-09-24T15:02:57.841Z,99.90
2022-09-24T15:05:27.523Z,99.90
2022-09-24T15:08:27.272Z,99.90
2022-09-24T15:10:56.894Z,99.90
2022-09-24T15:13:26.740Z,99.90
2022-09-24T15:16:09.938Z,99.90
2022-09-24T15:18:37.690Z,99.90
2022-09-24T15:21:08.737Z,99.90
2022-09-24T15:23:36.406Z,99.90
2022-09-24T15:26:04.668Z,99.90
2022-09-24T15:28:32.555Z,99.90
2022-09-24T15:31:00.360Z,99.90
2022-09-24T15:33:29.402Z,99.90
2022-09-24T15:35:57.070Z,99.90
2022-09-24T15:38:24.800Z,99.90
2022-09-24T15:40:53.764Z,99.90
2022-09-24T15:43:23.562Z,99.90
2022-09-24T15:45:52.000Z,99.90
2022-09-24T15:48:19.917Z,99.90
2022-09-24T15:50:50.528Z,99.90
2022-09-24T15:53:21.588Z,99.90
2022-09-24T15:55:53.424Z,99.90
2022-09-24T15:58:24.598Z,99.90
2022-09-24T16:00:52.974Z,99.90
2022-09-24T16:03:26.895Z,99.90
2022-09-24T16:05:57.031Z,99.90
2022-09-24T16:08:24.955Z,99.90
2022-09-24T16:10:53.889Z,99.90
2022-09-24T16:13:23.248Z,99.90
2022-09-24T16:15:51.101Z,99.90
2022-09-24T16:18:18.944Z,99.90
2022-09-24T16:20:47.354Z,99.90
2022-09-24T16:23:17.733Z,99.90
2022-09-24T16:25:56.551Z,99.90
2022-09-24T16:28:24.645Z,99.90
2022-09-24T16:30:52.376Z,99.90
2022-09-24T16:33:20.091Z,99.90
2022-09-24T16:35:47.975Z,99.90
2022-09-24T16:38:22.502Z,99.90
2022-09-24T16:40:52.024Z,99.90
2022-09-24T16:43:19.998Z,99.90
2022-09-24T16:45:47.978Z,99.90
2022-09-24T16:48:15.802Z,99.90
2022-09-24T16:50:43.513Z,99.90
2022-09-24T16:53:11.175Z,99.90
2022-09-24T16:55:42.473Z,99.90
2022-09-24T16:58:10.647Z,99.90
2022-09-24T17:00:42.237Z,99.90
2022-09-24T17:03:12.091Z,99.90
2022-09-24T17:05:40.671Z,99.90
2022-09-24T17:08:08.518Z,99.90
2022-09-24T17:10:35.255Z,99.90
2022-09-24T17:13:04.250Z,99.90
2022-09-24T17:15:32.040Z,99.90
2022-09-24T17:17:59.919Z,99.90
2022-09-24T17:20:27.838Z,99.90
2022-09-24T17:22:55.523Z,99.90
2022-09-24T17:25:23.425Z,99.90
2022-09-24T17:27:51.137Z,99.90
2022-09-24T17:30:20.333Z,99.90
2022-09-24T17:32:48.011Z,99.90
2022-09-24T17:35:15.910Z,99.90
2022-09-24T17:37:45.083Z,99.90
2022-09-24T17:40:12.911Z,99.90
2022-09-24T17:42:45.721Z,99.90
2022-09-24T17:45:13.484Z,99.90
2022-09-24T17:47:57.485Z,99.90
2022-09-24T17:50:25.290Z,99.90
2022-09-24T17:52:52.976Z,99.90
2022-09-24T17:55:20.728Z,99.90
2022-09-24T17:57:48.411Z,99.90
2022-09-24T18:00:16.257Z,99.90
2022-09-24T18:02:45.307Z,99.90
2022-09-24T18:05:13.102Z,99.90
2022-09-24T18:07:41.475Z,99.90
2022-09-24T18:10:09.961Z,99.90
2022-09-24T18:12:37.678Z,99.90
2022-09-24T18:15:05.922Z,99.90
2022-09-24T18:17:33.596Z,99.90
2022-09-24T18:20:03.106Z,99.90
2022-09-24T18:22:30.793Z,99.90
2022-09-24T18:25:00.683Z,99.90
2022-09-24T18:27:28.437Z,99.90
2022-09-24T18:29:58.231Z,99.90
2022-09-24T18:32:26.349Z,99.90
2022-09-24T18:34:54.231Z,99.90
2022-09-24T18:37:23.279Z,99.90
2022-09-24T18:39:51.006Z,99.90
2022-09-24T18:42:18.733Z,99.90
2022-09-24T18:44:47.424Z,99.90
2022-09-24T18:47:15.463Z,99.90
2022-09-24T18:49:43.751Z,99.90
2022-09-24T18:52:11.557Z,99.90
2022-09-24T18:54:40.682Z,99.90
2022-09-24T18:57:08.414Z,99.90
2022-09-24T18:59:44.345Z,99.90
2022-09-24T19:02:13.323Z,99.90
2022-09-24T19:04:41.334Z,99.90
2022-09-24T19:07:10.705Z,99.90
2022-09-24T19:09:39.801Z,99.90
2022-09-24T19:12:08.750Z,99.90
2022-09-24T19:14:36.733Z,99.90
2022-09-24T19:17:07.073Z,99.90
2022-09-24T19:19:34.841Z,99.90
2022-09-24T19:22:02.856Z,99.90
2022-09-24T19:24:30.544Z,99.90
2022-09-24T19:26:59.613Z,99.90
2022-09-24T19:29:27.794Z,99.90
2022-09-24T19:31:55.468Z,99.90
2022-09-24T19:34:23.197Z,99.90
2022-09-24T19:36:50.878Z,99.90
2022-09-24T19:39:19.115Z,99.90
2022-09-24T19:41:47.225Z,99.90
2022-09-24T19:44:17.035Z,99.90
2022-09-24T19:46:45.096Z,99.90
2022-09-24T19:49:13.672Z,99.90
2022-09-24T19:51:41.404Z,99.90
2022-09-24T19:54:09.476Z,99.90
2022-09-24T19:56:38.357Z,99.90
2022-09-24T19:59:07.887Z,99.90
2022-09-24T20:01:37.531Z,99.90
2022-09-24T20:04:07.565Z,99.90
2022-09-24T20:06:36.975Z,99.90
2022-09-24T20:09:05.118Z,99.90
2022-09-24T20:11:33.244Z,99.90
2022-09-24T20:14:01.916Z,99.90
2022-09-24T20:16:32.365Z,99.90
2022-09-24T20:19:02.703Z,99.90
2022-09-24T20:21:34.356Z,99.90
2022-09-24T20:24:03.629Z,99.90
2022-09-24T20:26:49.290Z,99.90
2022-09-24T20:29:19.482Z,99.90
2022-09-24T20:31:51.094Z,99.90
2022-09-24T20:34:21.009Z,99.90
2022-09-24T20:36:48.826Z,99.90
2022-09-24T20:39:16.748Z,99.90
2022-09-24T20:41:45.283Z,99.90
2022-09-24T20:44:13.145Z,99.90
2022-09-24T20:46:41.004Z,99.90
2022-09-24T20:49:09.027Z,99.90
2022-09-24T20:51:38.767Z,99.90
2022-09-24T20:54:06.791Z,99.90
2022-09-24T20:56:34.523Z,99.90
2022-09-24T20:59:02.257Z,99.90
2022-09-24T21:01:30.033Z,99.90
2022-09-24T21:03:58.196Z,99.90
2022-09-24T21:06:26.140Z,99.90
2022-09-24T21:08:55.181Z,99.90
2022-09-24T21:11:26.421Z,99.90
2022-09-24T21:13:56.191Z,99.90
2022-09-24T21:16:25.739Z,99.90
2022-09-24T21:18:55.058Z,99.90
2022-09-24T21:21:24.789Z,99.90
2022-09-24T21:23:54.980Z,99.90
2022-09-24T21:26:24.820Z,99.90
2022-09-24T21:28:54.288Z,99.90
2022-09-24T21:31:24.208Z,99.90
2022-09-24T21:33:53.697Z,99.90
2022-09-24T21:36:24.205Z,99.90
2022-09-24T21:38:54.945Z,99.90
2022-09-24T21:41:24.898Z,99.90
2022-09-24T21:43:53.443Z,99.90
2022-09-24T21:46:21.348Z,99.90
2022-09-24T21:48:49.107Z,99.90
2022-09-24T21:51:20.081Z,99.90
2022-09-24T21:53:47.933Z,99.90
2022-09-24T21:56:18.786Z,99.90
2022-09-24T21:58:48.627Z,99.90
2022-09-24T22:01:17.876Z,99.90
2022-09-24T22:03:46.646Z,99.90
2022-09-24T22:06:14.949Z,99.90
2022-09-24T22:08:43.046Z,99.90
2022-09-24T22:11:12.663Z,99.90
2022-09-24T22:13:41.137Z,99.90
2022-09-24T22:16:11.674Z,99.90
2022-09-24T22:18:41.491Z,99.90
2022-09-24T22:21:11.518Z,99.90
2022-09-24T22:23:39.312Z,99.90
2022-09-24T22:26:07.993Z,99.90
2022-09-24T22:28:36.228Z,99.90
2022-09-24T22:31:07.067Z,99.90
2022-09-24T22:33:53.788Z,99.90
2022-09-24T22:36:21.883Z,99.90
2022-09-24T22:38:53.064Z,99.90
2022-09-24T22:41:21.454Z,99.90
2022-09-24T22:43:49.251Z,99.90
2022-09-24T22:46:17.362Z,99.90
2022-09-24T22:48:47.345Z,99.90
2022-09-24T22:51:15.736Z,99.90
2022-09-24T22:53:43.481Z,99.90
2022-09-24T22:56:13.394Z,99.90
2022-09-24T22:58:43.259Z,99.90
2022-09-24T23:01:13.538Z,99.90
2022-09-24T23:03:41.811Z,99.90
2022-09-24T23:06:12.659Z,99.90
2022-09-24T23:08:41.728Z,99.90
2022-09-24T23:11:11.144Z,99.90
2022-09-24T23:13:40.703Z,99.90
2022-09-24T23:16:11.645Z,99.90
2022-09-24T23:18:39.897Z,99.90
2022-09-24T23:21:10.977Z,99.90
2022-09-24T23:23:39.069Z,99.90
2022-09-24T23:26:08.072Z,99.90
2022-09-24T23:28:39.509Z,99.90
2022-09-24T23:31:08.568Z,99.90
2022-09-24T23:33:39.288Z,99.90
2022-09-24T23:36:08.583Z,99.90
2022-09-24T23:38:38.559Z,99.90
2022-09-24T23:41:06.977Z,99.90
2022-09-24T23:43:35.260Z,99.90
2022-09-24T23:46:03.926Z,99.90
2022-09-24T23:48:32.101Z,99.90
2022-09-24T23:51:00.457Z,99.90
2022-09-24T23:53:28.598Z,99.90
2022-09-24T23:55:57.648Z,99.90
2022-09-24T23:58:25.802Z,99.90
